Time;durP1;ratioP1;P1;durP2;ratioP2;P2;SDS_P1;SDS_P2;PMS_P1;PMS_P2;Temp;Humidity;BMP_temperature;BMP_pressure;BME280_temperature;BME280_humidity;BME280_pressure;Samples;Min_cycle;Max_cycle;Signal;HPM_P1;HPM_P2
2023/04/11 00:02:21;;;;;;;59.60;48.00;;;;;;;4.30;100.00;99115.92;109758;1249;59262;-74
2023/04/11 00:04:48;;;;;;;60.40;51.00;;;;;;;4.28;100.00;99114.58;109714;1249;64898;-73
2023/04/11 00:07:14;;;;;;;66.80;53.70;;;;;;;4.28;100.00;99109.47;109632;1249;59339;-74
2023/04/11 00:09:41;;;;;;;68.00;54.50;;;;;;;4.28;100.00;99101.90;109697;1250;58878;-73
2023/04/11 00:12:08;;;;;;;62.20;50.60;;;;;;;4.27;100.00;99092.48;109533;1250;64780;-73
2023/04/11 00:14:34;;;;;;;55.10;46.00;;;;;;;4.22;100.00;99086.68;109671;1251;61000;-73
2023/04/11 00:17:01;;;;;;;54.70;45.90;;;;;;;4.16;100.00;99082.68;109682;1251;59045;-73
2023/04/11 00:19:27;;;;;;;56.50;47.10;;;;;;;4.10;100.00;99077.30;109403;1249;59034;-73
2023/04/11 00:21:59;;;;;;;57.00;45.50;;;;;;;4.06;100.00;99070.08;109580;1249;59054;-73
2023/04/11 00:24:26;;;;;;;55.80;48.10;;;;;;;4.02;100.00;99070.08;109572;1251;66103;-73
2023/04/11 00:26:52;;;;;;;60.90;51.10;;;;;;;3.98;100.00;99070.94;109701;1251;58984;-74
2023/04/11 00:29:19;;;;;;;61.20;49.70;;;;;;;3.94;100.00;99066.84;109679;1249;62814;-73
2023/04/11 00:31:45;;;;;;;60.30;49.90;;;;;;;3.91;100.00;99061.17;109696;1251;59292;-73
2023/04/11 00:34:12;;;;;;;61.60;51.10;;;;;;;3.88;100.00;99056.54;109604;1251;58950;-73
2023/04/11 00:36:40;;;;;;;58.30;49.10;;;;;;;3.87;100.00;99060.10;109697;1250;64831;-73
2023/04/11 00:39:08;;;;;;;66.50;52.80;;;;;;;3.86;100.00;99055.55;109723;1251;60118;-73
2023/04/11 00:41:34;;;;;;;62.10;51.40;;;;;;;3.87;100.00;99051.14;109681;1250;64069;-73
2023/04/11 00:44:01;;;;;;;55.20;47.80;;;;;;;3.85;100.00;99048.91;109397;1251;59045;-73
2023/04/11 00:46:28;;;;;;;55.00;48.40;;;;;;;3.81;100.00;99042.22;109721;1250;59063;-73
2023/04/11 00:48:55;;;;;;;55.60;46.10;;;;;;;3.76;100.00;99040.14;109689;1251;65022;-73
2023/04/11 00:51:21;;;;;;;55.00;46.50;;;;;;;3.71;100.00;99037.53;109687;1251;60125;-73
2023/04/11 00:53:49;;;;;;;55.60;47.30;;;;;;;3.65;100.00;99041.94;109704;1251;62746;-73
2023/04/11 00:56:15;;;;;;;57.80;47.90;;;;;;;3.61;100.00;99041.41;109660;1251;59055;-74
2023/04/11 00:58:42;;;;;;;59.60;47.60;;;;;;;3.53;100.00;99038.20;109730;1251;60253;-73
2023/04/11 01:01:08;;;;;;;59.20;49.10;;;;;;;3.49;100.00;99036.75;109682;1251;64809;-74
2023/04/11 01:03:37;;;;;;;58.50;50.20;;;;;;;3.47;100.00;99035.96;109478;1251;59353;-74
2023/04/11 01:06:10;;;;;;;53.90;45.10;;;;;;;3.45;100.00;99028.84;109685;1251;64052;-74
2023/04/11 01:08:39;;;;;;;55.70;48.50;;;;;;;3.43;100.00;99028.89;109550;1249;59089;-73
2023/04/11 01:11:07;;;;;;;63.50;50.50;;;;;;;3.43;100.00;99027.84;109731;1251;59000;-73
2023/04/11 01:13:38;;;;;;;80.00;50.20;;;;;;;3.44;100.00;99022.39;109569;1251;66076;-73
2023/04/11 01:16:04;;;;;;;59.90;49.20;;;;;;;3.47;100.00;99024.90;109722;1251;60132;-74
2023/04/11 01:18:31;;;;;;;54.30;46.60;;;;;;;3.48;100.00;99022.38;109178;1251;64123;-74
2023/04/11 01:21:00;;;;;;;55.30;43.60;;;;;;;3.48;100.00;99022.38;109706;1251;59057;-74
2023/04/11 01:23:27;;;;;;;53.20;44.60;;;;;;;3.46;100.00;99020.18;109694;1250;59052;-74
2023/04/11 01:25:53;;;;;;;72.40;47.50;;;;;;;3.43;100.00;99017.31;109390;1251;66016;-73
2023/04/11 01:28:20;;;;;;;79.30;47.30;;;;;;;3.39;100.00;99013.41;109780;1250;59049;-74
2023/04/11 01:30:47;;;;;;;94.20;45.40;;;;;;;3.37;100.00;99012.11;109695;1251;62813;-74
2023/04/11 01:33:15;;;;;;;65.60;41.80;;;;;;;3.36;100.00;99008.64;109693;1250;58935;-74
2023/04/11 01:35:42;;;;;;;61.20;41.20;;;;;;;3.32;100.00;99005.45;109562;1250;59145;-74
2023/04/11 01:38:09;;;;;;;69.90;42.80;;;;;;;3.28;100.00;98999.61;109658;1251;64808;-74
2023/04/11 01:40:37;;;;;;;53.10;39.60;;;;;;;3.24;100.00;99001.69;109574;1251;60407;-74
2023/04/11 01:43:07;;;;;;;55.30;35.80;;;;;;;3.23;100.00;99003.85;109564;1251;64045;-74
2023/04/11 01:45:34;;;;;;;49.10;34.90;;;;;;;3.23;100.00;99005.08;109688;1250;59026;-74
2023/04/11 01:48:07;;;;;;;51.60;32.60;;;;;;;3.23;100.00;99008.58;109742;1250;59085;-74
2023/04/11 01:50:34;;;;;;;82.50;36.50;;;;;;;3.20;100.00;99006.39;109594;1251;66000;-74
2023/04/11 01:53:01;;;;;;;91.00;35.90;;;;;;;3.21;100.00;99003.40;109742;1249;60478;-74
2023/04/11 01:55:27;;;;;;;77.80;34.40;;;;;;;3.23;100.00;98999.63;109719;1250;64075;-74
2023/04/11 01:57:54;;;;;;;78.90;36.00;;;;;;;3.22;100.00;98995.63;109715;1250;59011;-73
2023/04/11 02:00:35;;;;;;;60.10;34.90;;;;;;;3.18;100.00;98992.80;109715;1251;58909;-74
2023/04/11 02:03:02;;;;;;;87.90;34.30;;;;;;;3.15;100.00;98988.15;109754;1249;66459;-73
2023/04/11 02:05:28;;;;;;;89.30;33.10;;;;;;;3.16;100.00;98982.86;109729;1250;60147;-74
2023/04/11 02:07:55;;;;;;;52.20;33.00;;;;;;;3.16;100.00;98979.34;109708;1251;58977;-73
2023/04/11 02:10:22;;;;;;;45.80;33.00;;;;;;;3.14;100.00;98976.27;109718;1249;59013;-74
2023/04/11 02:12:49;;;;;;;49.00;33.60;;;;;;;3.10;100.00;98965.52;109688;1251;58872;-73
2023/04/11 02:15:15;;;;;;;47.30;33.30;;;;;;;3.04;100.00;98961.52;109742;1249;66054;-73
2023/04/11 02:17:44;;;;;;;55.30;33.70;;;;;;;3.00;100.00;98959.41;109745;1251;60171;-73
2023/04/11 02:20:12;;;;;;;48.40;35.20;;;;;;;2.96;100.00;98952.02;109744;1250;64110;-73
2023/04/11 02:22:39;;;;;;;69.90;50.40;;;;;;;2.92;100.00;98949.52;109713;1249;59022;-74
2023/04/11 02:25:06;;;;;;;62.20;43.70;;;;;;;2.90;100.00;98951.00;109766;1250;59070;-74
2023/04/11 02:27:33;;;;;;;58.10;36.60;;;;;;;2.90;100.00;98951.34;109708;1250;66058;-73
2023/04/11 02:30:00;;;;;;;65.00;35.80;;;;;;;2.90;100.00;98952.05;109691;1250;60060;-73
2023/04/11 02:32:26;;;;;;;67.20;31.50;;;;;;;2.87;100.00;98947.43;109732;1250;63112;-74
2023/04/11 02:34:53;;;;;;;98.00;29.70;;;;;;;2.78;100.00;98948.45;109702;1249;59293;-73
2023/04/11 02:37:19;;;;;;;107.70;29.00;;;;;;;2.70;100.00;98949.10;109728;1249;58954;-74
2023/04/11 02:39:45;;;;;;;109.80;28.50;;;;;;;2.65;100.00;98943.99;109746;1249;59399;-74
2023/04/11 02:42:12;;;;;;;77.20;27.10;;;;;;;2.62;100.00;98938.14;109538;1251;59666;-74
2023/04/11 02:44:38;;;;;;;93.50;29.90;;;;;;;2.61;100.00;98933.61;109730;1250;59874;-74
2023/04/11 02:47:05;;;;;;;94.70;28.10;;;;;;;2.62;100.00;98936.35;109733;1249;58941;-74
2023/04/11 02:49:31;;;;;;;79.20;27.90;;;;;;;2.62;100.00;98934.29;109680;1250;58927;-74
2023/04/11 02:51:58;;;;;;;75.00;27.60;;;;;;;2.60;100.00;98931.88;109704;1250;59477;-74
2023/04/11 02:54:24;;;;;;;89.00;28.30;;;;;;;2.58;100.00;98933.88;109721;1249;59113;-74
2023/04/11 02:56:51;;;;;;;93.40;29.70;;;;;;;2.57;100.00;98929.52;109722;1250;59059;-74
2023/04/11 02:59:18;;;;;;;88.30;31.10;;;;;;;2.59;100.00;98928.09;109721;1249;58994;-74
2023/04/11 03:01:44;;;;;;;67.60;28.80;;;;;;;2.61;100.00;98927.14;109691;1249;59007;-73
2023/04/11 03:04:11;;;;;;;69.60;27.20;;;;;;;2.61;100.00;98927.30;109724;1250;64803;-74
2023/04/11 03:06:38;;;;;;;90.20;29.20;;;;;;;2.60;100.00;98927.83;109418;1250;58976;-74
2023/04/11 03:09:04;;;;;;;88.50;28.00;;;;;;;2.61;100.00;98924.13;108917;1250;1002617;-74
2023/04/11 03:11:31;;;;;;;72.40;28.40;;;;;;;2.63;100.00;98926.35;109562;1249;59009;-73
2023/04/11 03:13:57;;;;;;;75.00;28.80;;;;;;;2.63;100.00;98924.95;109730;1250;59092;-73
2023/04/11 03:16:26;;;;;;;70.20;27.90;;;;;;;2.63;100.00;98922.31;109751;1251;64812;-73
2023/04/11 03:18:53;;;;;;;64.30;27.00;;;;;;;2.62;100.00;98922.00;109571;1249;60585;-74
2023/04/11 03:21:20;;;;;;;81.50;28.80;;;;;;;2.61;100.00;98918.70;109678;1250;64035;-74
2023/04/11 03:23:46;;;;;;;57.00;27.40;;;;;;;2.60;100.00;98917.14;109718;1249;59440;-73
2023/04/11 03:26:13;;;;;;;80.00;30.70;;;;;;;2.60;100.00;98920.30;109752;1249;59090;-74
2023/04/11 03:28:39;;;;;;;79.00;30.00;;;;;;;2.61;100.00;98925.17;109735;1250;64875;-73
2023/04/11 03:31:06;;;;;;;92.80;35.60;;;;;;;2.64;100.00;98922.09;109429;1249;60171;-74
2023/04/11 03:33:32;;;;;;;65.60;35.70;;;;;;;2.65;100.00;98917.14;109707;1250;65018;-73
2023/04/11 03:35:59;;;;;;;55.20;30.50;;;;;;;2.64;100.00;98913.67;109532;1251;59077;-73
2023/04/11 03:38:26;;;;;;;58.60;28.40;;;;;;;2.62;100.00;98913.39;109692;1250;59225;-73
2023/04/11 03:40:52;;;;;;;72.80;33.00;;;;;;;2.56;100.00;98907.83;109728;1250;64736;-73
2023/04/11 03:43:19;;;;;;;56.00;33.10;;;;;;;2.54;100.00;98900.19;109700;1249;60151;-73
2023/04/11 03:45:46;;;;;;;44.90;29.60;;;;;;;2.55;100.00;98896.30;109679;1250;64053;-73
2023/04/11 03:48:12;;;;;;;103.70;40.60;;;;;;;2.53;100.00;98889.70;109691;1250;58952;-73
2023/04/11 03:50:39;;;;;;;90.20;39.70;;;;;;;2.53;100.00;98883.39;109721;1250;58995;-73
2023/04/11 03:53:06;;;;;;;67.00;37.90;;;;;;;2.54;100.00;98878.98;109713;1250;66014;-73
2023/04/11 03:55:32;;;;;;;67.20;40.90;;;;;;;2.52;100.00;98878.86;109729;1251;58995;-74
2023/04/11 03:57:59;;;;;;;70.20;41.50;;;;;;;2.50;100.00;98878.41;109673;1249;62512;-73
2023/04/11 04:00:27;;;;;;;63.60;38.20;;;;;;;2.48;100.00;98877.77;109366;1249;58984;-73
2023/04/11 04:02:53;;;;;;;49.90;36.30;;;;;;;2.49;100.00;98877.59;109511;1251;58983;-73
2023/04/11 04:05:20;;;;;;;54.00;36.40;;;;;;;2.47;100.00;98872.56;109718;1250;65890;-73
2023/04/11 04:07:46;;;;;;;63.20;36.80;;;;;;;2.46;100.00;98870.67;109727;1251;60089;-73
2023/04/11 04:10:13;;;;;;;46.00;27.40;;;;;;;2.46;100.00;98863.65;109726;1249;64168;-73
2023/04/11 04:12:40;;;;;;;41.10;25.80;;;;;;;2.45;100.00;98855.63;109661;1250;59456;-73
2023/04/11 04:15:07;;;;;;;41.50;23.60;;;;;;;2.44;100.00;98853.21;109702;1249;59113;-74
2023/04/11 04:17:34;;;;;;;32.70;22.10;;;;;;;2.44;100.00;98852.70;109379;1251;66309;-73
2023/04/11 04:20:00;;;;;;;37.10;21.80;;;;;;;2.44;100.00;98854.29;109661;1250;60119;-74
2023/04/11 04:22:28;;;;;;;33.40;18.70;;;;;;;2.44;100.00;98851.47;109686;1249;64057;-73
2023/04/11 04:24:56;;;;;;;33.90;18.50;;;;;;;2.46;100.00;98848.23;109663;1250;59263;-74
2023/04/11 04:27:23;;;;;;;33.00;18.00;;;;;;;2.50;100.00;98848.75;109425;1250;58993;-74
2023/04/11 04:29:51;;;;;;;25.80;19.20;;;;;;;2.54;100.00;98841.43;109582;1249;64840;-74
2023/04/11 04:32:21;;;;;;;32.50;21.60;;;;;;;2.57;100.00;98836.59;109740;1250;59986;-74
2023/04/11 04:34:54;;;;;;;41.50;23.60;;;;;;;2.59;100.00;98834.39;109711;1250;62875;-74
2023/04/11 04:37:23;;;;;;;43.90;23.30;;;;;;;2.62;100.00;98834.46;109021;1250;59026;-74
2023/04/11 04:39:54;;;;;;;37.30;22.90;;;;;;;2.68;100.00;98833.02;109678;1250;58848;-74
2023/04/11 04:42:29;;;;;;;39.20;23.80;;;;;;;2.74;100.00;98826.48;109491;1249;66265;-74
2023/04/11 04:44:55;;;;;;;40.40;24.10;;;;;;;2.81;100.00;98828.86;109725;1250;59197;-74
2023/04/11 04:47:24;;;;;;;40.80;23.30;;;;;;;2.89;100.00;98828.02;109589;1249;62825;-74
2023/04/11 04:49:55;;;;;;;31.90;24.10;;;;;;;2.99;100.00;98824.30;109530;1250;58968;-74
2023/04/11 04:52:26;;;;;;;39.10;25.40;;;;;;;3.13;100.00;98818.48;109762;1250;59024;-74
2023/04/11 04:54:56;;;;;;;38.70;25.30;;;;;;;3.28;100.00;98815.44;109552;1251;66019;-74
2023/04/11 04:57:24;;;;;;;32.40;24.80;;;;;;;3.42;100.00;98812.92;109612;1250;59205;-74
2023/04/11 04:59:50;;;;;;;30.40;23.80;;;;;;;3.62;100.00;98811.57;109561;1250;62815;-74
2023/04/11 05:02:17;;;;;;;31.80;25.50;;;;;;;3.98;100.00;98811.64;109691;1250;59132;-74
2023/04/11 05:04:43;;;;;;;27.80;23.70;;;;;;;4.52;100.00;98805.58;109729;1250;58974;-74
2023/04/11 05:07:12;;;;;;;24.70;22.00;;;;;;;5.16;100.00;98804.00;109722;1250;64966;-74
2023/04/11 05:09:39;;;;;;;21.50;19.20;;;;;;;5.79;100.00;98793.66;109589;1250;59402;-74
2023/04/11 05:12:07;;;;;;;20.20;18.10;;;;;;;6.43;100.00;98790.52;109739;1249;63328;-74
2023/04/11 05:14:34;;;;;;;16.90;15.40;;;;;;;7.03;100.00;98786.40;109643;1250;59296;-74
2023/04/11 05:17:00;;;;;;;16.70;15.00;;;;;;;7.56;100.00;98784.58;109712;1249;58984;-74
2023/04/11 05:19:27;;;;;;;12.80;11.70;;;;;;;8.12;100.00;98777.79;109604;1251;64798;-74
2023/04/11 05:21:53;;;;;;;12.20;11.10;;;;;;;8.58;100.00;98773.55;109592;1250;58947;-74
2023/04/11 05:24:20;;;;;;;13.50;12.30;;;;;;;8.96;100.00;98767.95;109752;1249;59996;-74
2023/04/11 05:26:47;;;;;;;13.10;11.80;;;;;;;9.32;100.00;98761.90;109690;1249;58985;-74
2023/04/11 05:29:13;;;;;;;13.80;12.40;;;;;;;9.69;100.00;98755.77;109742;1249;58949;-74
2023/04/11 05:31:40;;;;;;;13.00;11.90;;;;;;;10.06;100.00;98752.02;109691;1250;59648;-74
2023/04/11 05:34:06;;;;;;;12.60;11.50;;;;;;;10.37;100.00;98748.10;109747;1250;59006;-74
2023/04/11 05:36:33;;;;;;;12.00;10.90;;;;;;;10.56;100.00;98748.36;109727;1250;64438;-74
2023/04/11 05:38:59;;;;;;;13.50;12.10;;;;;;;10.72;100.00;98745.83;109698;1249;58976;-73
2023/04/11 05:41:26;;;;;;;11.70;10.60;;;;;;;10.75;100.00;98738.65;109694;1249;59035;-73
2023/04/11 05:43:52;;;;;;;11.60;10.50;;;;;;;10.96;100.00;98733.94;109707;1250;65015;-73
2023/04/11 05:46:19;;;;;;;11.80;10.90;;;;;;;11.21;100.00;98731.47;109681;1250;58991;-73
2023/04/11 05:48:46;;;;;;;11.70;10.60;;;;;;;11.40;100.00;98725.38;109705;1249;64056;-73
2023/04/11 05:51:12;;;;;;;13.20;12.00;;;;;;;11.46;100.00;98716.27;109738;1250;58962;-73
2023/04/11 05:53:39;;;;;;;11.60;10.60;;;;;;;11.44;100.00;98713.55;109767;1250;58970;-73
2023/04/11 05:56:06;;;;;;;11.60;10.60;;;;;;;11.52;100.00;98707.05;109711;1249;58932;-73
2023/04/11 05:58:33;;;;;;;12.60;11.30;;;;;;;11.58;100.00;98700.58;109410;1249;60323;-74
2023/04/11 06:01:00;;;;;;;11.60;10.40;;;;;;;11.65;100.00;98698.05;109694;1250;62940;-74
2023/04/11 06:03:26;;;;;;;12.10;11.00;;;;;;;11.73;100.00;98693.00;109702;1249;59469;-74
2023/04/11 06:05:53;;;;;;;11.60;10.50;;;;;;;11.66;100.00;98693.89;109708;1250;59146;-74
2023/04/11 06:08:20;;;;;;;11.40;10.40;;;;;;;11.74;100.00;98693.13;109725;1250;66072;-74
2023/04/11 06:10:46;;;;;;;11.90;10.80;;;;;;;11.92;100.00;98686.80;109738;1250;59861;-74
2023/04/11 06:13:13;;;;;;;11.60;10.60;;;;;;;12.11;100.00;98685.85;109700;1250;64002;-74
2023/04/11 06:15:40;;;;;;;11.70;10.60;;;;;;;12.21;100.00;98684.86;109711;1249;59105;-74
2023/04/11 06:18:06;;;;;;;10.40;9.50;;;;;;;12.19;100.00;98680.58;109728;1249;58905;-74
2023/04/11 06:20:33;;;;;;;10.20;9.30;;;;;;;12.23;100.00;98681.67;109715;1250;66134;-73
2023/04/11 06:23:00;;;;;;;9.90;9.00;;;;;;;12.31;100.00;98680.70;109572;1250;58993;-73
2023/04/11 06:25:26;;;;;;;11.50;10.10;;;;;;;12.45;100.00;98680.67;109694;1249;63290;-73
2023/04/11 06:27:53;;;;;;;10.50;9.50;;;;;;;12.59;100.00;98678.85;109713;1249;59408;-73
2023/04/11 06:30:19;;;;;;;10.90;9.80;;;;;;;12.70;100.00;98678.84;109689;1250;58968;-73
2023/04/11 06:32:46;;;;;;;11.00;10.00;;;;;;;12.70;100.00;98683.05;109533;1249;65747;-73
2023/04/11 06:35:13;;;;;;;11.00;9.80;;;;;;;12.66;100.00;98677.41;109726;1250;59051;-73
2023/04/11 06:37:41;;;;;;;12.00;10.70;;;;;;;12.52;100.00;98672.59;109701;1250;62501;-74
2023/04/11 06:40:08;;;;;;;12.10;11.00;;;;;;;12.38;100.00;98666.27;109674;1249;58976;-74
2023/04/11 06:42:34;;;;;;;12.20;10.60;;;;;;;12.21;100.00;98664.58;109385;1249;58981;-74
2023/04/11 06:45:01;;;;;;;12.40;11.30;;;;;;;12.10;100.00;98666.48;109560;1250;66042;-74
2023/04/11 06:47:28;;;;;;;12.60;11.30;;;;;;;11.94;100.00;98662.41;109438;1249;60482;-74
2023/04/11 06:49:54;;;;;;;11.90;10.80;;;;;;;11.71;100.00;98662.16;109722;1250;62849;-74
2023/04/11 06:52:21;;;;;;;12.60;11.50;;;;;;;11.50;100.00;98659.86;109750;1250;58957;-74
2023/04/11 06:54:48;;;;;;;12.30;11.20;;;;;;;11.28;100.00;98660.83;109713;1250;59010;-74
2023/04/11 06:57:14;;;;;;;14.10;12.70;;;;;;;11.08;100.00;98657.50;109728;1249;65798;-74
2023/04/11 06:59:41;;;;;;;14.10;12.70;;;;;;;10.94;100.00;98659.10;109727;1250;60157;-73
2023/04/11 07:02:07;;;;;;;14.40;12.80;;;;;;;10.75;100.00;98656.20;109680;1250;62822;-74
2023/04/11 07:04:34;;;;;;;14.00;12.60;;;;;;;10.66;100.00;98653.30;109352;1250;59284;-74
2023/04/11 07:07:00;;;;;;;15.40;13.80;;;;;;;10.64;100.00;98653.81;109742;1250;58961;-74
2023/04/11 07:09:27;;;;;;;14.80;13.40;;;;;;;10.63;100.00;98650.02;109692;1250;59693;-74
2023/04/11 07:11:55;;;;;;;13.00;11.60;;;;;;;10.73;100.00;98645.88;109734;1249;59013;-74
2023/04/11 07:14:21;;;;;;;13.40;12.10;;;;;;;10.83;100.00;98649.20;109343;1249;64145;-74
2023/04/11 07:16:48;;;;;;;12.90;11.70;;;;;;;10.92;100.00;98650.75;109690;1250;59395;-74
2023/04/11 07:19:14;;;;;;;12.50;11.20;;;;;;;11.00;100.00;98645.56;109748;1249;58956;-74
2023/04/11 07:21:41;;;;;;;13.40;12.00;;;;;;;10.98;100.00;98642.28;109714;1250;66048;-74
2023/04/11 07:24:09;;;;;;;14.00;12.00;;;;;;;11.01;100.00;98638.65;109688;1250;60319;-74
2023/04/11 07:26:37;;;;;;;13.10;11.10;;;;;;;11.18;100.00;98642.36;109430;1249;62499;-74
2023/04/11 07:29:04;;;;;;;12.20;11.00;;;;;;;11.44;100.00;98640.61;109675;1250;58945;-75
2023/04/11 07:31:30;;;;;;;11.60;10.50;;;;;;;11.67;100.00;98637.79;109684;1249;59059;-74
2023/04/11 07:33:57;;;;;;;11.70;10.40;;;;;;;11.85;100.00;98639.07;109697;1250;58905;-74
2023/04/11 07:36:23;;;;;;;10.90;9.90;;;;;;;11.99;100.00;98643.36;109681;1250;60099;-75
2023/04/11 07:38:51;;;;;;;11.10;10.00;;;;;;;12.15;100.00;98642.98;109673;1250;62821;-75
2023/04/11 07:41:17;;;;;;;10.80;9.80;;;;;;;12.27;100.00;98640.92;109387;1249;58992;-75
2023/04/11 07:43:44;;;;;;;10.30;9.40;;;;;;;12.43;100.00;98639.50;109718;1250;58910;-74
2023/04/11 07:46:13;;;;;;;11.00;9.50;;;;;;;12.54;100.00;98638.95;109679;1249;64844;-74
2023/04/11 07:48:40;;;;;;;11.40;9.80;;;;;;;12.62;100.00;98635.27;109724;1250;60149;-74
2023/04/11 07:51:07;;;;;;;10.50;9.40;;;;;;;12.73;100.00;98633.67;109540;1249;62504;-74
2023/04/11 07:53:33;;;;;;;10.60;9.60;;;;;;;12.86;100.00;98620.63;109675;1249;59255;-75
2023/04/11 07:56:00;;;;;;;12.40;10.40;;;;;;;13.06;100.00;98605.48;109747;1249;59147;-74
2023/04/11 07:58:27;;;;;;;9.50;8.60;;;;;;;13.32;100.00;98596.69;109661;1249;64803;-74
2023/04/11 08:00:53;;;;;;;10.40;9.40;;;;;;;13.58;100.00;98585.23;109688;1251;60244;-74
2023/04/11 08:03:20;;;;;;;9.80;8.90;;;;;;;13.76;100.00;98574.77;109688;1250;63764;-74
2023/04/11 08:05:46;;;;;;;10.90;9.90;;;;;;;13.92;100.00;98568.70;109513;1251;58945;-75
2023/04/11 08:08:13;;;;;;;10.50;9.60;;;;;;;14.08;100.00;98571.08;109633;1250;58942;-74
2023/04/11 08:10:39;;;;;;;10.20;9.30;;;;;;;14.19;100.00;98574.59;109681;1250;58988;-74
2023/04/11 08:13:06;;;;;;;10.70;9.70;;;;;;;14.22;100.00;98575.48;109715;1250;59057;-74
2023/04/11 08:15:35;;;;;;;10.20;9.20;;;;;;;14.26;100.00;98572.45;109708;1249;62848;-74
2023/04/11 08:18:04;;;;;;;9.70;8.70;;;;;;;14.28;100.00;98566.41;109653;1249;58927;-74
2023/04/11 08:20:30;;;;;;;10.50;9.50;;;;;;;14.36;100.00;98562.83;109758;1250;58870;-74
2023/04/11 08:22:57;;;;;;;10.10;9.10;;;;;;;14.44;100.00;98558.69;109717;1249;64826;-74
2023/04/11 08:25:24;;;;;;;12.80;9.10;;;;;;;14.54;100.00;98561.11;109740;1250;60116;-74
2023/04/11 08:27:51;;;;;;;12.00;9.30;;;;;;;14.54;100.00;98564.86;109456;1249;64042;-74
2023/04/11 08:30:18;;;;;;;10.80;9.70;;;;;;;14.51;100.00;98565.23;109673;1250;59023;-74
2023/04/11 08:32:44;;;;;;;11.00;9.80;;;;;;;14.48;100.00;98559.20;109697;1249;59058;-74
2023/04/11 08:35:11;;;;;;;10.20;9.30;;;;;;;14.45;100.00;98559.16;109729;1249;64799;-74
2023/04/11 08:37:38;;;;;;;10.80;9.70;;;;;;;14.52;100.00;98551.38;109734;1249;59013;-73
2023/04/11 08:40:05;;;;;;;10.50;9.50;;;;;;;14.53;100.00;98550.12;109671;1249;63922;-73
2023/04/11 08:42:33;;;;;;;11.70;10.50;;;;;;;14.38;100.00;98547.47;109656;1250;59015;-75
2023/04/11 08:45:04;;;;;;;11.00;10.00;;;;;;;14.28;100.00;98542.79;109519;1250;59014;-73
2023/04/11 08:47:35;;;;;;;10.90;9.80;;;;;;;14.26;100.00;98535.81;109704;1250;65722;-73
2023/04/11 08:50:03;;;;;;;10.80;9.20;;;;;;;14.37;100.00;98531.84;109708;1249;59053;-73
2023/04/11 08:52:30;;;;;;;13.80;12.50;;;;;;;14.52;100.00;98528.16;109649;1251;64337;-73
2023/04/11 08:54:57;;;;;;;12.00;10.10;;;;;;;14.70;100.00;98522.09;109543;1250;58979;-73
2023/04/11 08:57:30;;;;;;;11.30;9.90;;;;;;;14.78;100.00;98513.49;109321;1250;59039;-73
2023/04/11 09:00:13;;;;;;;11.00;9.90;;;;;;;14.86;100.00;98508.98;109584;1249;64618;-73
2023/04/11 09:03:00;;;;;;;12.10;10.20;;;;;;;15.04;100.00;98507.86;109661;1250;59415;-74
2023/04/11 09:05:28;;;;;;;11.00;9.40;;;;;;;15.19;100.00;98507.20;109567;1250;65622;-74
2023/04/11 09:07:57;;;;;;;10.40;9.30;;;;;;;15.26;100.00;98501.00;109571;1250;59096;-74
2023/04/11 09:10:25;;;;;;;9.80;8.80;;;;;;;15.32;100.00;98496.12;109581;1248;59389;-73
2023/04/11 09:12:53;;;;;;;9.90;8.90;;;;;;;15.39;100.00;98490.99;109665;1250;66061;-74
2023/04/11 09:15:23;;;;;;;9.70;8.80;;;;;;;15.49;100.00;98483.76;109603;1250;60267;-73
2023/04/11 09:17:50;;;;;;;9.70;8.70;;;;;;;15.65;100.00;98480.60;109666;1249;64068;-74
2023/04/11 09:20:19;;;;;;;9.30;8.40;;;;;;;15.87;100.00;98477.27;109521;1251;59060;-74
2023/04/11 09:22:49;;;;;;;9.80;8.80;;;;;;;16.12;100.00;98473.59;109525;1249;174828;-74
2023/04/11 09:25:17;;;;;;;;;;;;;;;16.31;100.00;98468.96;109704;1250;65832;-74
2023/04/11 09:27:44;;;;;;;10.50;9.40;;;;;;;16.38;100.00;98458.77;109695;1249;59304;-74
2023/04/11 09:30:23;;;;;;;10.60;9.50;;;;;;;16.49;100.00;98455.93;109694;1249;62806;-74
2023/04/11 09:32:54;;;;;;;9.80;8.80;;;;;;;16.39;100.00;98452.22;109526;1250;59207;-74
2023/04/11 09:35:23;;;;;;;10.30;8.50;;;;;;;16.30;100.00;98450.10;109662;1250;59459;-74
2023/04/11 09:37:55;;;;;;;10.80;9.60;;;;;;;16.50;100.00;98443.47;109474;1250;66977;-75
2023/04/11 09:40:24;;;;;;;10.30;9.30;;;;;;;16.61;100.00;98435.89;109714;1251;59746;-75
2023/04/11 09:42:59;;;;;;;11.50;8.60;;;;;;;16.63;100.00;98429.77;109711;1250;64051;-74
2023/04/11 09:45:27;;;;;;;10.40;9.40;;;;;;;16.79;100.00;98425.80;109463;1249;59073;-75
2023/04/11 09:47:55;;;;;;;10.10;9.10;;;;;;;16.92;100.00;98418.80;109725;1250;59045;-75
2023/04/11 09:50:23;;;;;;;10.90;9.90;;;;;;;16.99;100.00;98417.16;109574;1250;66188;-75
2023/04/11 09:52:51;;;;;;;9.90;9.00;;;;;;;17.00;100.00;98411.48;109611;1250;59091;-75
2023/04/11 09:55:19;;;;;;;10.80;8.70;;;;;;;17.04;100.00;98409.42;109684;1250;62816;-75
2023/04/11 09:57:48;;;;;;;9.60;8.80;;;;;;;17.12;100.00;98409.55;109223;1250;59285;-75
2023/04/11 10:00:20;;;;;;;12.70;9.90;;;;;;;17.18;100.00;98403.21;109586;1249;58992;-75
2023/04/11 10:02:49;;;;;;;11.90;10.70;;;;;;;17.24;100.00;98398.61;109563;1250;65720;-75
2023/04/11 10:05:17;;;;;;;11.10;10.00;;;;;;;17.32;100.00;98397.95;109568;1250;60228;-75
2023/04/11 10:07:52;;;;;;;11.50;9.10;;;;;;;17.48;100.00;98389.94;109687;1249;64024;-75
2023/04/11 10:10:21;;;;;;;10.60;9.60;;;;;;;17.61;100.00;98384.71;109331;1255;59002;-75
2023/04/11 10:12:49;;;;;;;9.60;8.60;;;;;;;17.60;100.00;98380.59;109553;1250;59222;-75
2023/04/11 10:15:17;;;;;;;9.50;8.50;;;;;;;17.61;100.00;98377.38;109594;1251;64845;-75
2023/04/11 10:18:11;;;;;;;9.00;8.00;;;;;;;17.80;100.00;98374.25;109260;1257;60135;-74
2023/04/11 10:20:47;;;;;;;8.30;7.50;;;;;;;18.03;100.00;98371.13;109229;1255;62980;-74
2023/04/11 10:23:14;;;;;;;9.30;7.70;;;;;;;18.22;100.00;98363.64;109018;1257;59331;-74
2023/04/11 10:25:52;;;;;;;7.80;7.00;;;;;;;18.38;100.00;98356.78;109274;1256;59014;-74
2023/04/11 10:28:37;;;;;;;8.40;7.20;;;;;;;18.49;100.00;98352.01;109228;1255;66027;-74
2023/04/11 10:31:16;;;;;;;9.40;7.20;;;;;;;18.62;100.00;98350.73;109236;1256;61011;-74
2023/04/11 10:34:13;;;;;;;8.50;7.30;;;;;;;18.79;100.00;98345.34;109202;1255;64179;-74
2023/04/11 10:37:03;;;;;;;7.80;7.10;;;;;;;18.89;100.00;98342.05;108816;1260;59075;-74
2023/04/11 10:39:56;;;;;;;10.00;7.20;;;;;;;19.00;100.00;98339.71;108888;1260;58909;-73
2023/04/11 10:42:30;;;;;;;7.70;6.90;;;;;;;19.22;100.00;98341.54;108875;1260;66092;-73
2023/04/11 10:45:16;;;;;;;7.90;7.20;;;;;;;19.31;100.00;98343.30;108877;1260;59122;-74
2023/04/11 10:47:59;;;;;;;7.60;6.80;;;;;;;19.11;100.00;98340.80;108857;1260;64315;-73
2023/04/11 10:50:26;;;;;;;8.40;7.40;;;;;;;19.06;100.00;98340.86;108991;1258;59136;-74
2023/04/11 10:53:05;;;;;;;8.80;7.70;;;;;;;19.22;100.00;98341.73;109036;1257;59126;-74
2023/04/11 10:55:47;;;;;;;9.00;7.60;;;;;;;19.20;100.00;98336.64;108996;1258;66077;-74
2023/04/11 10:58:15;;;;;;;8.40;7.20;;;;;;;19.05;100.00;98330.65;108962;1258;59804;-74
2023/04/11 11:00:51;;;;;;;8.00;7.00;;;;;;;19.06;100.00;98327.20;109013;1258;64219;-74
2023/04/11 11:03:19;;;;;;;8.50;7.40;;;;;;;19.22;100.00;98324.08;108905;1258;59431;-74
2023/04/11 11:05:46;;;;;;;9.60;8.00;;;;;;;19.41;100.00;98320.46;108979;1259;59023;-74
2023/04/11 11:08:13;;;;;;;8.10;7.30;;;;;;;19.42;100.00;98320.77;108866;1257;67051;-74
2023/04/11 11:10:42;;;;;;;7.60;6.80;;;;;;;19.25;100.00;98316.41;108956;1258;58987;-73
2023/04/11 11:13:09;;;;;;;8.10;7.00;;;;;;;19.18;100.00;98305.98;109134;1251;64108;-73
2023/04/11 11:15:36;;;;;;;7.60;5.70;;;;;;;19.22;100.00;98305.91;109667;1250;58982;-73